createdAt,value
2019-03-21T00:02:13.893Z,9.28
2019-03-21T00:05:38.398Z,9.24
2019-03-21T00:09:05.210Z,9.18
2019-03-21T00:12:29.361Z,9.05
2019-03-21T00:15:58.502Z,9.05
2019-03-21T00:19:22.482Z,9.02
2019-03-21T00:22:46.483Z,8.98
2019-03-21T00:26:10.466Z,8.99
2019-03-21T00:29:34.446Z,9.04
2019-03-21T00:32:58.449Z,9.04
2019-03-21T00:36:22.395Z,9.10
2019-03-21T00:39:47.242Z,9.13
2019-03-21T00:43:12.204Z,9.00
2019-03-21T00:46:38.599Z,8.97
2019-03-21T00:50:02.789Z,8.92
2019-03-21T00:53:26.688Z,8.90
2019-03-21T00:56:50.589Z,8.90
2019-03-21T01:00:20.746Z,8.90
2019-03-21T01:03:44.703Z,8.81
2019-03-21T01:07:08.638Z,8.76
2019-03-21T01:10:32.525Z,8.61
2019-03-21T01:13:56.423Z,8.66
2019-03-21T01:17:20.466Z,8.65
2019-03-21T01:20:44.436Z,8.60
2019-03-21T01:24:08.434Z,8.56
2019-03-21T01:27:32.359Z,8.53
2019-03-21T01:30:56.240Z,8.51
2019-03-21T01:34:20.109Z,8.42
2019-03-21T01:37:44.171Z,8.44
2019-03-21T01:41:08.182Z,8.45
2019-03-21T01:44:40.612Z,8.43
2019-03-21T01:47:58.042Z,8.42
2019-03-21T01:51:22.010Z,8.35
2019-03-21T01:54:45.868Z,8.42
2019-03-21T01:58:09.799Z,8.36
2019-03-21T02:01:34.152Z,8.37
2019-03-21T02:04:58.091Z,8.39
2019-03-21T02:08:22.002Z,8.42
2019-03-21T02:11:45.973Z,8.58
2019-03-21T02:15:11.208Z,8.69
2019-03-21T02:18:35.206Z,8.60
2019-03-21T02:21:59.256Z,8.53
2019-03-21T02:25:26.227Z,8.44
2019-03-21T02:28:50.085Z,8.34
2019-03-21T02:32:14.118Z,8.32
2019-03-21T02:35:38.349Z,8.25
2019-03-21T02:39:03.543Z,8.22
2019-03-21T02:42:29.351Z,8.18
2019-03-21T02:45:53.527Z,8.19
2019-03-21T02:49:17.388Z,8.11
2019-03-21T02:52:41.473Z,8.12
2019-03-21T02:56:07.888Z,8.21
2019-03-21T02:59:31.908Z,8.32
2019-03-21T03:02:57.943Z,8.59
2019-03-21T03:06:21.957Z,8.75
2019-03-21T03:09:45.852Z,8.73
2019-03-21T03:13:09.774Z,8.62
2019-03-21T03:16:33.692Z,8.64
2019-03-21T03:19:57.584Z,8.46
2019-03-21T03:23:21.491Z,8.58
2019-03-21T03:26:45.364Z,8.50
2019-03-21T03:30:14.117Z,8.70
2019-03-21T03:33:38.163Z,8.68
2019-03-21T03:37:02.076Z,8.62
2019-03-21T03:40:31.776Z,8.48
2019-03-21T03:43:55.672Z,8.49
2019-03-21T03:47:19.599Z,8.40
2019-03-21T03:50:43.504Z,8.38
2019-03-21T03:54:07.394Z,8.43
2019-03-21T03:57:31.680Z,8.45
2019-03-21T04:00:57.387Z,8.38
2019-03-21T04:04:21.518Z,8.41
2019-03-21T04:07:45.483Z,8.56
2019-03-21T04:11:09.460Z,8.69
2019-03-21T04:14:33.869Z,8.62
2019-03-21T04:17:57.864Z,8.65
2019-03-21T04:21:21.970Z,8.56
2019-03-21T04:24:46.696Z,8.54
2019-03-21T04:28:13.820Z,8.55
2019-03-21T04:31:37.804Z,8.56
2019-03-21T04:35:01.715Z,8.51
2019-03-21T04:38:26.601Z,8.59
2019-03-21T04:41:50.478Z,8.55
2019-03-21T04:45:19.128Z,8.50
2019-03-21T04:48:42.998Z,8.46
2019-03-21T04:52:06.992Z,8.51
2019-03-21T04:55:30.905Z,8.32
2019-03-21T04:58:55.922Z,8.28
2019-03-21T05:02:19.857Z,8.43
2019-03-21T05:05:44.193Z,8.41
2019-03-21T05:09:13.406Z,8.22
2019-03-21T05:12:38.476Z,8.28
2019-03-21T05:16:02.448Z,8.38
2019-03-21T05:19:26.557Z,8.32
2019-03-21T05:22:50.500Z,8.20
2019-03-21T05:26:14.709Z,8.36
2019-03-21T05:29:39.018Z,8.46
2019-03-21T05:33:02.905Z,8.40
2019-03-21T05:36:27.056Z,8.38
2019-03-21T05:39:51.107Z,8.37
2019-03-21T05:43:22.431Z,8.49
2019-03-21T05:46:46.360Z,8.24
2019-03-21T05:50:14.950Z,8.48
2019-03-21T05:53:39.682Z,8.28
2019-03-21T05:57:03.639Z,8.51
2019-03-21T06:00:33.289Z,8.46
2019-03-21T06:03:57.319Z,8.52
2019-03-21T06:07:56.917Z,8.53
2019-03-21T06:11:20.913Z,8.55
2019-03-21T06:14:51.495Z,8.72
2019-03-21T06:19:08.337Z,8.63
2019-03-21T06:22:57.788Z,8.58
2019-03-21T06:26:56.804Z,8.72
2019-03-21T06:30:20.841Z,8.79
2019-03-21T06:33:44.873Z,8.86
2019-03-21T06:37:08.826Z,8.90
2019-03-21T06:40:33.036Z,9.10
2019-03-21T06:43:57.105Z,9.06
2019-03-21T06:47:21.738Z,9.02
2019-03-21T06:50:45.730Z,9.11
2019-03-21T06:54:09.876Z,8.99
2019-03-21T06:57:33.991Z,9.09
2019-03-21T07:00:58.307Z,9.22
2019-03-21T07:04:22.334Z,9.39
2019-03-21T07:07:48.447Z,9.45
2019-03-21T07:11:12.731Z,9.43
2019-03-21T07:14:36.819Z,9.59
2019-03-21T07:18:00.799Z,9.38
2019-03-21T07:21:25.197Z,9.67
2019-03-21T07:24:49.127Z,9.67
2019-03-21T07:28:13.116Z,9.71
2019-03-21T07:31:37.104Z,9.64
2019-03-21T07:35:01.366Z,9.82
2019-03-21T07:38:25.474Z,9.71
2019-03-21T07:41:49.645Z,10.14
2019-03-21T07:45:13.717Z,10.22
2019-03-21T07:48:38.592Z,10.35
2019-03-21T07:52:02.707Z,10.36
2019-03-21T07:55:26.732Z,10.50
2019-03-21T07:58:50.793Z,10.67
2019-03-21T08:02:15.193Z,10.68
2019-03-21T08:05:40.529Z,10.98
2019-03-21T08:09:06.985Z,11.16
2019-03-21T08:12:30.992Z,10.85
2019-03-21T08:15:55.430Z,11.20
2019-03-21T08:19:19.421Z,11.12
2019-03-21T08:22:43.951Z,11.09
2019-03-21T08:26:07.934Z,11.46
2019-03-21T08:29:46.602Z,11.69
2019-03-21T08:33:15.016Z,11.78
2019-03-21T08:36:39.308Z,11.73
2019-03-21T08:40:04.462Z,11.74
2019-03-21T08:43:28.576Z,12.06
2019-03-21T08:46:52.566Z,11.79
2019-03-21T08:50:16.548Z,12.38
2019-03-21T08:53:40.681Z,12.05
2019-03-21T08:57:04.981Z,12.27
2019-03-21T09:00:34.190Z,12.27
2019-03-21T09:03:57.505Z,12.71
2019-03-21T09:07:21.579Z,12.70
2019-03-21T09:10:46.075Z,12.68
2019-03-21T09:14:13.345Z,13.01
2019-03-21T09:17:37.395Z,13.29
2019-03-21T09:21:01.369Z,13.19
2019-03-21T09:24:25.473Z,13.16
2019-03-21T09:27:49.598Z,13.38
2019-03-21T09:31:13.798Z,13.73
2019-03-21T09:34:38.293Z,13.92
2019-03-21T09:38:03.676Z,14.12
2019-03-21T09:41:27.872Z,14.62
2019-03-21T09:44:51.799Z,14.80
2019-03-21T09:48:15.770Z,14.98
2019-03-21T09:51:39.855Z,15.38
2019-03-21T09:55:04.570Z,15.65
2019-03-21T09:58:28.516Z,16.92
2019-03-21T10:01:54.471Z,17.26
2019-03-21T10:05:18.844Z,17.19
2019-03-21T10:08:42.956Z,18.34
2019-03-21T10:12:06.910Z,19.26
2019-03-21T10:15:31.098Z,20.80
2019-03-21T10:18:55.231Z,21.96
2019-03-21T10:22:19.413Z,20.40
2019-03-21T10:25:43.491Z,21.36
2019-03-21T10:29:07.608Z,23.23
2019-03-21T10:32:31.849Z,23.86
2019-03-21T10:35:55.882Z,23.31
2019-03-21T10:39:20.395Z,21.90
2019-03-21T10:42:44.404Z,22.42
2019-03-21T10:46:08.511Z,21.08
2019-03-21T10:49:32.492Z,22.93
2019-03-21T10:52:56.630Z,23.79
2019-03-21T10:56:20.527Z,24.00
2019-03-21T10:59:44.499Z,23.95
2019-03-21T11:03:09.944Z,22.85
2019-03-21T11:06:33.861Z,23.81
2019-03-21T11:09:58.016Z,23.30
2019-03-21T11:13:21.924Z,22.59
2019-03-21T11:16:45.903Z,22.31
2019-03-21T11:20:11.840Z,24.68
2019-03-21T11:23:36.482Z,23.94
2019-03-21T11:27:00.846Z,25.25
2019-03-21T11:30:34.085Z,24.59
2019-03-21T11:33:58.513Z,23.26
2019-03-21T11:37:22.702Z,24.10
2019-03-21T11:40:48.403Z,24.56
2019-03-21T11:44:12.641Z,24.50
2019-03-21T11:47:41.652Z,22.61
2019-03-21T11:51:02.440Z,24.10
2019-03-21T11:54:26.626Z,24.14
2019-03-21T11:57:50.599Z,24.68
2019-03-21T12:01:14.651Z,25.23
2019-03-21T12:04:38.824Z,24.79
2019-03-21T12:08:02.915Z,24.38
2019-03-21T12:11:26.911Z,24.11
2019-03-21T12:14:51.024Z,24.71
2019-03-21T12:18:15.027Z,25.61
2019-03-21T12:21:39.244Z,25.95
2019-03-21T12:25:04.786Z,26.41
2019-03-21T12:28:28.771Z,26.34
2019-03-21T12:31:52.821Z,25.90
2019-03-21T12:35:17.006Z,26.36
2019-03-21T12:38:41.029Z,23.59
2019-03-21T12:42:05.249Z,27.05
2019-03-21T12:45:29.303Z,28.59
2019-03-21T12:48:53.499Z,26.79
2019-03-21T12:52:17.485Z,27.75
2019-03-21T12:55:41.591Z,28.34
2019-03-21T12:59:05.551Z,30.01
2019-03-21T13:02:32.267Z,30.27
2019-03-21T13:05:55.556Z,29.44
2019-03-21T13:09:19.474Z,29.58
2019-03-21T13:12:43.475Z,29.52
2019-03-21T13:16:08.532Z,28.41
2019-03-21T13:19:32.582Z,29.33
2019-03-21T13:22:56.732Z,30.50
2019-03-21T13:26:20.733Z,29.76
2019-03-21T13:29:44.717Z,30.33
2019-03-21T13:33:08.748Z,31.97
2019-03-21T13:36:32.781Z,30.21
2019-03-21T13:39:56.725Z,29.94
2019-03-21T13:43:21.061Z,31.60
2019-03-21T13:46:45.634Z,31.25
2019-03-21T13:50:09.863Z,33.20
2019-03-21T13:53:34.471Z,31.47
2019-03-21T13:56:58.519Z,32.50
2019-03-21T14:00:22.893Z,32.69
2019-03-21T14:03:46.964Z,31.64
2019-03-21T14:07:10.973Z,30.42
2019-03-21T14:10:35.035Z,32.90
2019-03-21T14:13:58.977Z,30.36
2019-03-21T14:17:23.141Z,30.55
2019-03-21T14:20:47.196Z,30.94
2019-03-21T14:24:11.215Z,30.86
2019-03-21T14:27:35.271Z,31.37
2019-03-21T14:30:59.266Z,31.38
2019-03-21T14:34:23.661Z,32.51
2019-03-21T14:37:47.750Z,32.99
2019-03-21T14:41:11.941Z,32.66
2019-03-21T14:44:36.234Z,33.42
2019-03-21T14:48:00.139Z,30.93
2019-03-21T14:51:24.244Z,32.49
2019-03-21T14:54:48.198Z,32.24
2019-03-21T14:58:12.296Z,32.58
2019-03-21T15:01:36.231Z,32.90
2019-03-21T15:05:01.371Z,30.29
2019-03-21T15:08:25.549Z,30.84
2019-03-21T15:11:50.400Z,30.70
2019-03-21T15:15:14.965Z,28.84
2019-03-21T15:18:38.939Z,29.65
2019-03-21T15:22:02.914Z,29.42
2019-03-21T15:25:26.972Z,30.46
2019-03-21T15:28:51.218Z,30.90
2019-03-21T15:32:15.616Z,31.62
2019-03-21T15:35:39.487Z,29.53
2019-03-21T15:39:05.804Z,30.69
2019-03-21T15:42:29.891Z,29.98
2019-03-21T15:45:53.850Z,30.26
2019-03-21T15:49:17.927Z,30.63
2019-03-21T15:52:41.933Z,30.51
2019-03-21T15:56:06.018Z,31.24
2019-03-21T15:59:31.754Z,31.73
2019-03-21T16:02:55.823Z,32.38
2019-03-21T16:06:19.896Z,31.83
2019-03-21T16:09:43.903Z,32.92
2019-03-21T16:13:07.900Z,31.72
2019-03-21T16:16:32.329Z,33.56
2019-03-21T16:19:56.340Z,33.00
2019-03-21T16:23:20.251Z,32.90
2019-03-21T16:26:44.634Z,31.61
2019-03-21T16:30:08.633Z,31.61
2019-03-21T16:33:32.949Z,32.33
2019-03-21T16:37:00.097Z,31.19
2019-03-21T16:40:24.699Z,32.20
2019-03-21T16:43:50.819Z,31.73
2019-03-21T16:47:15.326Z,30.82
2019-03-21T16:50:39.717Z,29.53
2019-03-21T16:54:16.160Z,29.48
2019-03-21T16:57:33.084Z,26.89
2019-03-21T17:00:57.403Z,25.84
2019-03-21T17:04:21.502Z,24.43
2019-03-21T17:07:45.855Z,23.53
2019-03-21T17:11:10.555Z,22.88
2019-03-21T17:14:34.660Z,21.82
2019-03-21T17:17:58.635Z,21.78
2019-03-21T17:21:22.704Z,22.00
2019-03-21T17:24:46.731Z,21.54
2019-03-21T17:28:10.589Z,21.30
2019-03-21T17:31:35.015Z,21.04
2019-03-21T17:34:58.986Z,20.59
2019-03-21T17:38:22.940Z,20.52
2019-03-21T17:41:46.916Z,20.39
2019-03-21T17:45:14.109Z,19.97
2019-03-21T17:48:38.131Z,19.80
2019-03-21T17:52:02.489Z,19.71
2019-03-21T17:55:26.532Z,19.51
2019-03-21T17:58:50.782Z,19.70
2019-03-21T18:02:14.731Z,19.44
2019-03-21T18:05:40.015Z,19.18
2019-03-21T18:09:06.889Z,18.94
2019-03-21T18:12:30.961Z,18.86
2019-03-21T18:16:00.541Z,18.86
2019-03-21T18:19:24.979Z,18.43
2019-03-21T18:22:49.370Z,18.56
2019-03-21T18:26:13.665Z,18.25
2019-03-21T18:29:38.240Z,18.22
2019-03-21T18:33:02.384Z,18.26
2019-03-21T18:36:26.560Z,18.11
2019-03-21T18:39:50.545Z,17.69
2019-03-21T18:43:14.675Z,17.70
2019-03-21T18:46:38.805Z,17.76
2019-03-21T18:50:03.377Z,17.61
2019-03-21T18:53:27.873Z,17.45
2019-03-21T18:56:52.212Z,17.38
2019-03-21T19:00:17.411Z,17.41
2019-03-21T19:03:41.489Z,16.77
2019-03-21T19:07:05.608Z,16.63
2019-03-21T19:10:29.870Z,16.39
2019-03-21T19:13:54.029Z,16.47
2019-03-21T19:17:18.053Z,16.49
2019-03-21T19:20:42.127Z,16.50
2019-03-21T19:24:07.038Z,16.21
2019-03-21T19:27:31.525Z,16.12
2019-03-21T19:30:55.560Z,15.87
2019-03-21T19:34:19.886Z,16.14
2019-03-21T19:37:44.543Z,15.93
2019-03-21T19:41:09.036Z,15.87
2019-03-21T19:44:33.225Z,15.84
2019-03-21T19:47:57.472Z,15.68
2019-03-21T19:51:21.826Z,15.61
2019-03-21T19:54:47.084Z,15.50
2019-03-21T19:58:11.903Z,15.47
2019-03-21T20:01:36.163Z,15.14
2019-03-21T20:05:00.970Z,15.06
2019-03-21T20:08:25.486Z,14.94
2019-03-21T20:11:51.474Z,14.75
2019-03-21T20:15:17.722Z,14.56
2019-03-21T20:18:42.090Z,14.44
2019-03-21T20:22:07.247Z,14.53
2019-03-21T20:25:42.260Z,14.62
2019-03-21T20:28:58.147Z,14.39
2019-03-21T20:32:22.409Z,14.46
2019-03-21T20:35:46.764Z,14.17
2019-03-21T20:39:11.272Z,14.13
2019-03-21T20:42:35.740Z,13.97
2019-03-21T20:46:00.102Z,14.08
2019-03-21T20:49:24.619Z,13.98
2019-03-21T20:52:48.616Z,13.70
2019-03-21T20:56:12.805Z,13.65
2019-03-21T20:59:39.571Z,13.38
2019-03-21T21:03:04.090Z,13.44
2019-03-21T21:06:28.462Z,13.58
2019-03-21T21:09:52.547Z,13.43
2019-03-21T21:13:16.663Z,13.22
2019-03-21T21:16:40.945Z,13.11
2019-03-21T21:20:07.594Z,12.84
2019-03-21T21:23:31.762Z,13.22
2019-03-21T21:26:55.829Z,13.03
2019-03-21T21:30:20.096Z,12.80
2019-03-21T21:33:45.190Z,12.84
2019-03-21T21:37:10.578Z,12.90
2019-03-21T21:40:35.018Z,12.73
2019-03-21T21:43:59.257Z,12.72
2019-03-21T21:47:23.422Z,12.45
2019-03-21T21:50:47.794Z,12.67
2019-03-21T21:54:11.734Z,12.51
2019-03-21T21:57:35.776Z,12.49
2019-03-21T22:00:59.955Z,12.40
2019-03-21T22:04:23.942Z,12.46
2019-03-21T22:07:48.367Z,12.41
2019-03-21T22:11:12.418Z,12.45
2019-03-21T22:14:36.635Z,12.55
2019-03-21T22:18:00.910Z,12.56
2019-03-21T22:21:24.898Z,12.18
2019-03-21T22:24:49.160Z,12.12
2019-03-21T22:28:13.242Z,12.13
2019-03-21T22:31:37.366Z,11.95
2019-03-21T22:35:01.395Z,11.95
2019-03-21T22:38:25.430Z,12.05
2019-03-21T22:41:49.407Z,12.03
2019-03-21T22:45:13.692Z,12.13
2019-03-21T22:48:37.679Z,12.01
2019-03-21T22:52:01.702Z,11.92
2019-03-21T22:55:25.715Z,11.81
2019-03-21T22:58:49.777Z,11.74
2019-03-21T23:02:14.157Z,11.96
2019-03-21T23:05:38.239Z,11.74
2019-03-21T23:09:02.338Z,11.84
2019-03-21T23:12:27.904Z,11.81
2019-03-21T23:15:51.879Z,11.65
2019-03-21T23:19:15.846Z,11.51
2019-03-21T23:22:40.292Z,11.55
2019-03-21T23:26:04.638Z,11.83
2019-03-21T23:29:28.700Z,11.55
2019-03-21T23:32:52.844Z,11.53
2019-03-21T23:36:16.881Z,11.47
2019-03-21T23:39:40.956Z,11.66
2019-03-21T23:43:05.065Z,11.55
2019-03-21T23:46:29.003Z,11.68
2019-03-21T23:49:52.959Z,11.74
2019-03-21T23:53:16.877Z,11.66
2019-03-21T23:56:40.854Z,11.73
